Time;durP1;ratioP1;P1;durP2;ratioP2;P2;SDS_P1;SDS_P2;PMS_P1;PMS_P2;Temp;Humidity;BMP_temperature;BMP_pressure;BME280_temperature;BME280_humidity;BME280_pressure;Samples;Min_cycle;Max_cycle;Signal;HPM_P1;HPM_P2
2021/08/27 00:00:17;;;;;;;1.75;1.58;;;;;;;15.30;70.20;100447.81;701554;28;21414;-66
2021/08/27 00:00:42;;;;;;;1.80;1.70;;;;;;;15.31;70.18;100461.19;702537;28;13749;-66
2021/08/27 00:01:03;;;;;;;2.03;1.85;;;;;;;15.31;69.92;100454.91;701069;28;46280;-67
2021/08/27 00:01:24;;;;;;;2.10;1.92;;;;;;;15.32;69.96;100456.59;702546;28;23508;-66
2021/08/27 00:01:45;;;;;;;1.75;1.65;;;;;;;15.29;69.91;100446.13;701454;28;22155;-66
2021/08/27 00:02:06;;;;;;;1.83;1.73;;;;;;;15.30;69.89;100455.97;702430;28;23266;-67
2021/08/27 00:02:28;;;;;;;1.92;1.77;;;;;;;15.31;69.93;100460.34;702602;28;21522;-67
2021/08/27 00:02:49;;;;;;;1.80;1.70;;;;;;;15.30;69.88;100458.69;701255;28;45047;-67
2021/08/27 00:03:10;;;;;;;1.60;1.50;;;;;;;15.30;69.93;100456.81;701879;28;23475;-67
2021/08/27 00:03:32;;;;;;;1.70;1.60;;;;;;;15.29;70.06;100455.13;700688;28;22183;-68
2021/08/27 00:03:54;;;;;;;1.67;1.58;;;;;;;15.31;69.84;100457.63;699754;28;46241;-69
2021/08/27 00:04:16;;;;;;;1.67;1.58;;;;;;;15.31;69.96;100454.91;699145;28;45295;-65
2021/08/27 00:04:37;;;;;;;2.33;1.70;;;;;;;15.30;70.08;100458.69;699589;28;45120;-67
2021/08/27 00:04:59;;;;;;;1.60;1.50;;;;;;;15.29;69.93;100455.13;700491;28;23453;-69
2021/08/27 00:05:21;;;;;;;1.90;1.70;;;;;;;15.30;70.19;100454.09;699747;28;46350;-69
2021/08/27 00:05:42;;;;;;;1.80;1.70;;;;;;;15.30;70.20;100450.53;701590;28;44390;-69
2021/08/27 00:06:03;;;;;;;1.77;1.67;;;;;;;15.32;70.16;100451.16;702516;28;23407;-69
2021/08/27 00:06:24;;;;;;;1.70;1.60;;;;;;;15.32;70.12;100451.16;702290;28;22352;-69
2021/08/27 00:06:46;;;;;;;2.33;1.70;;;;;;;15.34;70.10;100459.09;702394;28;23659;-69
2021/08/27 00:07:07;;;;;;;2.20;1.80;;;;;;;15.32;69.99;100460.13;701030;28;44182;-69
2021/08/27 00:07:28;;;;;;;2.33;1.80;;;;;;;15.35;69.68;100458.88;702304;28;23500;-69
2021/08/27 00:07:49;;;;;;;1.70;1.60;;;;;;;15.34;69.71;100453.66;702015;28;23548;-69
2021/08/27 00:08:11;;;;;;;1.70;1.55;;;;;;;15.35;69.99;100464.31;702473;28;22769;-68
2021/08/27 00:08:32;;;;;;;2.10;1.90;;;;;;;15.32;70.01;100456.59;701114;28;45281;-69
2021/08/27 00:08:53;;;;;;;2.08;1.90;;;;;;;15.34;69.82;100450.94;701072;28;21586;-69
2021/08/27 00:09:14;;;;;;;2.03;1.73;;;;;;;15.36;70.07;100454.25;701972;28;22198;-69
2021/08/27 00:09:36;;;;;;;2.15;1.77;;;;;;;15.35;70.04;100449.88;702327;28;23294;-69
2021/08/27 00:09:57;;;;;;;2.60;1.90;;;;;;;15.35;69.68;100456.16;701702;28;45186;-68
2021/08/27 00:10:18;;;;;;;1.90;1.60;;;;;;;15.34;69.77;100448.22;702384;28;21589;-69
2021/08/27 00:10:39;;;;;;;1.50;1.40;;;;;;;15.34;69.73;100457.19;703177;28;1697;-69
2021/08/27 00:11:02;;;;;;;2.22;1.40;;;;;;;15.33;69.64;100463.72;704092;28;23729;-68
2021/08/27 00:11:23;;;;;;;1.60;1.50;;;;;;;15.33;69.92;100450.09;701212;28;44380;-68
2021/08/27 00:11:44;;;;;;;2.00;1.80;;;;;;;15.34;69.88;100459.09;701897;28;22409;-66
2021/08/27 00:12:06;;;;;;;2.28;2.03;;;;;;;15.32;69.85;100460.13;700805;28;22403;-67
2021/08/27 00:12:28;;;;;;;2.58;1.80;;;;;;;15.31;69.86;100461.19;701046;28;44333;-68
2021/08/27 00:12:49;;;;;;;1.90;1.73;;;;;;;15.31;69.87;100458.47;701716;28;46267;-68
2021/08/27 00:13:10;;;;;;;2.30;1.90;;;;;;;15.32;70.00;100451.97;698675;28;24402;-67
2021/08/27 00:13:32;;;;;;;2.45;1.80;;;;;;;15.32;70.14;100456.59;698310;28;44455;-68
2021/08/27 00:13:54;;;;;;;1.85;1.75;;;;;;;15.31;70.03;100458.47;698994;28;21512;-68
2021/08/27 00:14:15;;;;;;;1.95;1.85;;;;;;;15.33;70.17;100455.53;698458;28;46282;-68
2021/08/27 00:14:36;;;;;;;1.83;1.73;;;;;;;15.32;70.11;100457.41;699429;28;22403;-67
2021/08/27 00:14:57;;;;;;;1.63;1.58;;;;;;;15.32;69.87;100445.69;700122;28;21516;-67
2021/08/27 00:15:20;;;;;;;1.95;1.75;;;;;;;15.32;70.14;100449.25;702851;28;1423;-66
2021/08/27 00:15:41;;;;;;;1.85;1.75;;;;;;;15.35;70.04;100450.72;702728;28;3961;-68
2021/08/27 00:16:02;;;;;;;1.90;1.80;;;;;;;15.36;70.00;100451.53;701808;28;22501;-68
2021/08/27 00:16:23;;;;;;;2.20;1.90;;;;;;;15.36;70.07;100456.97;701405;28;44314;-67
2021/08/27 00:16:45;;;;;;;1.80;1.70;;;;;;;15.36;70.09;100446.09;701805;28;22413;-68
2021/08/27 00:17:06;;;;;;;2.30;1.70;;;;;;;15.37;69.93;100454.03;700897;28;44333;-67
2021/08/27 00:17:29;;;;;;;2.53;1.80;;;;;;;15.36;69.98;100455.13;702495;28;23485;-68
2021/08/27 00:17:51;;;;;;;1.88;1.70;;;;;;;15.38;69.92;100454.91;700737;28;44556;-69
2021/08/27 00:18:12;;;;;;;2.00;1.90;;;;;;;15.38;69.85;100457.63;701382;28;44555;-67
2021/08/27 00:18:33;;;;;;;1.90;1.80;;;;;;;15.39;70.09;100451.09;700680;28;45237;-69
2021/08/27 00:18:54;;;;;;;2.75;1.90;;;;;;;15.39;70.12;100451.09;702331;28;21799;-66
2021/08/27 00:19:18;;;;;;;1.70;1.60;;;;;;;15.39;69.83;100451.97;703245;28;22137;-67
2021/08/27 00:19:39;;;;;;;1.65;1.55;;;;;;;15.37;69.99;100448.59;700240;28;67404;-67
2021/08/27 00:20:02;;;;;;;2.10;1.70;;;;;;;15.39;69.93;100451.09;701375;28;45309;-67
2021/08/27 00:20:24;;;;;;;1.50;1.40;;;;;;;15.38;69.87;100449.47;702303;28;1604;-67
2021/08/27 00:20:45;;;;;;;1.45;1.45;;;;;;;15.38;69.94;100452.19;697051;28;46886;-67
2021/08/27 00:21:06;;;;;;;1.80;1.70;;;;;;;15.38;69.68;100444.03;697342;28;22397;-67
2021/08/27 00:21:27;;;;;;;1.90;1.80;;;;;;;15.38;69.76;100446.75;698735;28;1630;-67
2021/08/27 00:21:48;;;;;;;2.83;1.83;;;;;;;15.34;69.86;100449.03;698148;28;22295;-68
2021/08/27 00:22:10;;;;;;;2.00;1.45;;;;;;;15.36;69.58;100446.09;698019;28;22420;-67
2021/08/27 00:22:32;;;;;;;1.55;1.45;;;;;;;15.35;69.62;100455.34;697410;28;69478;-66
2021/08/27 00:22:53;;;;;;;1.73;1.63;;;;;;;15.34;69.84;100462.63;702162;28;21557;-67
2021/08/27 00:23:14;;;;;;;1.75;1.65;;;;;;;15.32;69.70;100445.69;701912;28;21560;-68
2021/08/27 00:23:36;;;;;;;1.58;1.48;;;;;;;15.28;69.61;100437.16;702108;28;22404;-67
2021/08/27 00:23:58;;;;;;;3.22;1.40;;;;;;;15.30;69.58;100454.09;701558;28;44415;-66
2021/08/27 00:24:19;;;;;;;3.25;1.50;;;;;;;15.25;69.91;100450.31;701384;28;45513;-66
2021/08/27 00:24:40;;;;;;;1.50;1.40;;;;;;;15.27;69.75;100451.78;702627;28;21515;-66
2021/08/27 00:25:03;;;;;;;1.75;1.52;;;;;;;15.25;69.74;100444.88;702297;28;22416;-66
2021/08/27 00:25:24;;;;;;;3.10;1.50;;;;;;;15.26;69.78;100447.38;700396;28;69407;-66
2021/08/27 00:25:45;;;;;;;1.90;1.60;;;;;;;15.27;69.69;100450.97;702330;28;21546;-67
2021/08/27 00:26:06;;;;;;;1.92;1.70;;;;;;;15.25;69.64;100451.19;702503;28;22219;-66
2021/08/27 00:26:27;;;;;;;2.65;1.63;;;;;;;15.24;69.61;100452.22;702273;28;22455;-66
2021/08/27 00:26:49;;;;;;;2.17;1.48;;;;;;;15.23;69.76;100449.72;699451;28;22414;-66
2021/08/27 00:27:10;;;;;;;2.08;1.63;;;;;;;15.23;69.86;100450.53;697983;28;47303;-66
2021/08/27 00:27:31;;;;;;;1.70;1.60;;;;;;;15.22;69.64;100450.75;696717;28;22395;-67
2021/08/27 00:27:53;;;;;;;1.50;1.40;;;;;;;15.21;69.91;100446.38;696117;28;21562;-67
2021/08/27 00:28:14;;;;;;;1.67;1.58;;;;;;;15.24;69.83;100451.38;695249;28;46178;-67
2021/08/27 00:28:35;;;;;;;1.85;1.73;;;;;;;15.21;70.02;100451.81;696258;28;21527;-67
2021/08/27 00:28:56;;;;;;;1.88;1.70;;;;;;;15.21;69.72;100452.66;699697;28;1494;-67
2021/08/27 00:29:17;;;;;;;2.58;1.70;;;;;;;15.20;69.75;100450.97;699481;28;21537;-66
2021/08/27 00:29:39;;;;;;;2.42;1.40;;;;;;;15.20;69.82;100450.13;702338;28;22194;-67
2021/08/27 00:30:01;;;;;;;2.00;1.60;;;;;;;15.20;69.83;100444.69;701124;28;46274;-67
2021/08/27 00:30:22;;;;;;;1.65;1.55;;;;;;;15.17;69.73;100443.22;701905;28;22461;-67
2021/08/27 00:30:44;;;;;;;1.70;1.60;;;;;;;15.18;69.71;100449.53;702147;28;23681;-67
2021/08/27 00:31:05;;;;;;;1.90;1.80;;;;;;;15.17;69.84;100447.84;701404;28;44419;-67
2021/08/27 00:31:27;;;;;;;1.77;1.65;;;;;;;15.17;70.05;100447.84;702680;28;23512;-67
2021/08/27 00:31:48;;;;;;;1.55;1.45;;;;;;;15.17;69.84;100447.84;701352;28;46407;-68
2021/08/27 00:32:10;;;;;;;1.67;1.58;;;;;;;15.14;69.74;100452.69;701998;28;22434;-67
2021/08/27 00:32:31;;;;;;;1.70;1.50;;;;;;;15.13;69.83;100447.44;700798;28;67527;-67
2021/08/27 00:32:52;;;;;;;1.60;1.40;;;;;;;15.12;70.06;100449.34;702541;28;22428;-67
2021/08/27 00:33:13;;;;;;;1.60;1.50;;;;;;;15.11;69.99;100444.13;702305;28;23441;-67
2021/08/27 00:33:35;;;;;;;1.73;1.60;;;;;;;15.11;69.80;100450.38;702119;28;22406;-67
2021/08/27 00:33:57;;;;;;;1.60;1.50;;;;;;;15.08;70.10;100445.38;701246;28;44281;-67
2021/08/27 00:34:19;;;;;;;1.63;1.52;;;;;;;15.10;70.33;100451.41;702088;28;22412;-67
2021/08/27 00:34:40;;;;;;;1.73;1.60;;;;;;;15.09;69.85;100452.50;701535;28;44397;-67
2021/08/27 00:35:04;;;;;;;1.70;1.60;;;;;;;15.09;70.19;100451.63;702481;28;21552;-67
2021/08/27 00:35:26;;;;;;;1.90;1.80;;;;;;;15.10;70.30;100447.88;698925;28;114965;-67
2021/08/27 00:35:47;;;;;;;1.70;1.50;;;;;;;15.09;70.10;100444.34;702362;28;22389;-66
2021/08/27 00:36:08;;;;;;;1.60;1.38;;;;;;;15.11;70.23;100452.28;702601;28;23390;-67
2021/08/27 00:36:29;;;;;;;1.40;1.40;;;;;;;15.10;70.13;100447.88;701769;28;23508;-66
2021/08/27 00:36:51;;;;;;;1.77;1.67;;;;;;;15.10;70.13;100440.53;701619;28;23504;-66
2021/08/27 00:37:12;;;;;;;1.88;1.48;;;;;;;15.10;70.26;100443.25;700468;28;44208;-67
2021/08/27 00:37:34;;;;;;;1.90;1.60;;;;;;;15.10;70.12;100447.88;702483;28;23483;-67
2021/08/27 00:37:55;;;;;;;2.00;1.65;;;;;;;15.10;70.21;100447.88;701006;28;45305;-67
2021/08/27 00:38:17;;;;;;;1.90;1.80;;;;;;;15.07;70.31;100446.41;702266;28;22421;-67
2021/08/27 00:38:38;;;;;;;2.05;1.65;;;;;;;15.09;70.24;100449.78;700416;28;46348;-67
2021/08/27 00:38:59;;;;;;;3.40;1.60;;;;;;;15.08;70.36;100442.66;701988;28;21548;-67
2021/08/27 00:39:20;;;;;;;1.98;1.60;;;;;;;15.07;70.12;100449.13;701364;28;22521;-67
2021/08/27 00:39:42;;;;;;;1.55;1.52;;;;;;;15.07;70.41;100448.31;703959;28;1533;-67
2021/08/27 00:40:05;;;;;;;1.85;1.70;;;;;;;15.05;70.35;100443.06;696919;28;46284;-67
2021/08/27 00:40:26;;;;;;;1.80;1.70;;;;;;;15.07;70.23;100442.88;696919;28;46634;-67
2021/08/27 00:40:47;;;;;;;1.65;1.55;;;;;;;15.02;70.34;100435.34;698063;28;22374;-67
2021/08/27 00:41:09;;;;;;;1.40;1.40;;;;;;;15.04;70.35;100444.13;697482;28;21561;-66
2021/08/27 00:41:30;;;;;;;1.60;1.50;;;;;;;15.04;70.27;100446.00;697041;28;44556;-66
2021/08/27 00:41:51;;;;;;;1.60;1.50;;;;;;;15.01;70.43;100435.56;698613;28;23338;-67
2021/08/27 00:42:12;;;;;;;1.65;1.50;;;;;;;15.01;70.59;100449.97;702784;28;21528;-66
2021/08/27 00:42:34;;;;;;;1.60;1.50;;;;;;;15.00;70.39;100440.16;702042;28;22401;-67
2021/08/27 00:42:55;;;;;;;1.70;1.60;;;;;;;15.01;70.44;100444.53;701601;28;46336;-67
2021/08/27 00:43:16;;;;;;;1.43;1.43;;;;;;;15.00;70.40;100442.03;702204;28;21159;-67
2021/08/27 00:43:38;;;;;;;1.57;1.40;;;;;;;14.97;70.72;100440.59;698275;28;22338;-68
2021/08/27 00:44:00;;;;;;;1.48;1.38;;;;;;;15.00;70.52;100439.31;698724;28;46304;-67
2021/08/27 00:44:21;;;;;;;1.80;1.60;;;;;;;15.00;70.51;100442.03;698145;28;46366;-67
2021/08/27 00:44:42;;;;;;;1.85;1.75;;;;;;;14.98;70.58;100439.53;700662;28;21539;-67
2021/08/27 00:45:05;;;;;;;1.60;1.50;;;;;;;14.97;70.68;100435.16;695640;28;1442;-67
2021/08/27 00:45:30;;;;;;;1.90;1.50;;;;;;;14.98;70.67;100441.44;696114;28;13267;-67
2021/08/27 00:45:53;;;;;;;1.70;1.60;;;;;;;14.99;70.67;100443.09;698102;28;15428;-67
2021/08/27 00:46:15;;;;;;;2.35;1.52;;;;;;;14.96;70.57;100434.31;693923;28;43563;-67
2021/08/27 00:46:36;;;;;;;2.70;1.40;;;;;;;14.98;70.76;100439.53;694901;28;23476;-68
2021/08/27 00:46:58;;;;;;;1.60;1.50;;;;;;;14.95;70.77;100435.38;696046;28;45294;-67
2021/08/27 00:47:19;;;;;;;1.60;1.50;;;;;;;14.97;70.78;100437.88;697507;28;44413;-68
2021/08/27 00:47:40;;;;;;;1.80;1.70;;;;;;;14.96;70.56;100442.47;698564;28;23321;-65
2021/08/27 00:48:02;;;;;;;1.80;1.70;;;;;;;14.94;70.68;100430.97;699592;28;23442;-68
2021/08/27 00:48:24;;;;;;;1.80;1.70;;;;;;;14.96;70.88;100434.31;701189;28;45220;-67
2021/08/27 00:48:45;;;;;;;1.77;1.60;;;;;;;14.98;70.80;100433.25;700858;28;44225;-67
2021/08/27 00:49:06;;;;;;;2.28;1.65;;;;;;;14.98;70.84;100433.25;702342;28;22405;-67
2021/08/27 00:49:29;;;;;;;1.88;1.77;;;;;;;14.99;70.59;100438.50;702241;28;22370;-68
2021/08/27 00:49:51;;;;;;;2.60;1.60;;;;;;;14.99;71.06;100435.78;700309;28;69454;-68
2021/08/27 00:50:12;;;;;;;2.25;1.63;;;;;;;14.99;70.80;100435.78;700047;28;45287;-68
2021/08/27 00:50:34;;;;;;;1.88;1.77;;;;;;;14.99;70.83;100440.38;702896;28;21511;-67
2021/08/27 00:50:55;;;;;;;1.73;1.63;;;;;;;14.96;70.78;100434.31;701698;28;46329;-68
2021/08/27 00:51:17;;;;;;;1.67;1.58;;;;;;;14.95;70.60;100435.38;702363;28;21583;-66
2021/08/27 00:51:38;;;;;;;1.60;1.50;;;;;;;14.94;70.82;100430.16;701626;28;46401;-66
2021/08/27 00:51:59;;;;;;;1.85;1.52;;;;;;;14.94;70.69;100430.16;701805;28;20919;-67
2021/08/27 00:52:20;;;;;;;1.60;1.50;;;;;;;14.92;70.91;100430.34;702334;28;22414;-67
2021/08/27 00:52:41;;;;;;;1.70;1.60;;;;;;;14.92;70.90;100432.22;702034;28;22338;-67
2021/08/27 00:53:04;;;;;;;1.50;1.40;;;;;;;14.93;70.94;100431.19;702002;28;23766;-68
2021/08/27 00:53:25;;;;;;;1.40;1.40;;;;;;;14.95;71.07;100429.06;701263;28;46323;-69
2021/08/27 00:53:46;;;;;;;1.70;1.60;;;;;;;14.94;71.00;100438.31;702244;28;23557;-67
2021/08/27 00:54:07;;;;;;;1.70;1.60;;;;;;;14.94;70.96;100430.97;702234;28;22306;-67
2021/08/27 00:54:32;;;;;;;2.13;1.40;;;;;;;14.96;70.88;100438.91;703053;28;22412;-67
2021/08/27 00:54:53;;;;;;;2.72;1.50;;;;;;;14.96;70.74;100436.19;698527;28;138967;-68
2021/08/27 00:55:14;;;;;;;1.60;1.50;;;;;;;14.95;70.58;100440.81;701302;28;46323;-68
2021/08/27 00:55:37;;;;;;;1.87;1.60;;;;;;;14.94;70.89;100433.69;699730;28;67524;-67
2021/08/27 00:55:59;;;;;;;1.65;1.52;;;;;;;14.94;70.58;100438.31;701725;28;45342;-66
2021/08/27 00:56:20;;;;;;;2.30;1.63;;;;;;;14.95;70.86;100435.38;700912;28;46017;-66
2021/08/27 00:56:42;;;;;;;1.50;1.40;;;;;;;14.94;70.82;100427.44;703081;28;920;-67
2021/08/27 00:57:07;;;;;;;2.20;1.60;;;;;;;14.93;70.66;100437.44;702153;28;22198;-66
2021/08/27 00:57:28;;;;;;;1.52;1.40;;;;;;;14.94;70.69;100438.31;698935;28;113533;-67
2021/08/27 00:57:49;;;;;;;1.50;1.40;;;;;;;14.94;70.71;100436.41;699784;28;44356;-68
2021/08/27 00:58:11;;;;;;;2.00;1.50;;;;;;;14.93;70.69;100433.91;702308;28;22437;-67
2021/08/27 00:58:33;;;;;;;1.98;1.67;;;;;;;14.94;70.69;100435.59;701446;28;22399;-68
2021/08/27 00:58:54;;;;;;;1.67;1.42;;;;;;;14.92;70.88;100437.66;701209;28;46405;-68
2021/08/27 00:59:15;;;;;;;1.65;1.40;;;;;;;14.90;71.00;100431.63;701953;28;22477;-67
2021/08/27 00:59:36;;;;;;;1.52;1.40;;;;;;;14.88;71.11;100439.16;699194;28;46363;-67
2021/08/27 00:59:58;;;;;;;2.72;1.60;;;;;;;14.90;70.92;100434.31;700649;28;21554;-67
2021/08/27 01:00:19;;;;;;;1.70;1.60;;;;;;;14.90;70.98;100429.72;699299;28;45246;-67
2021/08/27 01:00:42;;;;;;;2.30;1.50;;;;;;;14.90;71.08;100435.16;700571;28;21542;-67
2021/08/27 01:01:03;;;;;;;1.90;1.70;;;;;;;14.88;70.86;100434.53;699572;28;69393;-68
2021/08/27 01:01:25;;;;;;;2.80;1.70;;;;;;;14.89;70.97;100435.38;700399;28;45345;-68
2021/08/27 01:01:47;;;;;;;1.60;1.50;;;;;;;14.88;70.86;100436.44;701502;28;46283;-68
2021/08/27 01:02:08;;;;;;;2.78;1.50;;;;;;;14.87;71.15;100437.47;701197;28;22389;-68
2021/08/27 01:02:30;;;;;;;2.22;1.30;;;;;;;14.85;71.10;100425.97;699997;28;21520;-68
2021/08/27 01:02:52;;;;;;;1.58;1.40;;;;;;;14.86;70.94;100441.22;698116;28;46352;-68
2021/08/27 01:03:14;;;;;;;2.10;1.70;;;;;;;14.85;70.93;100436.88;697717;28;69428;-68
2021/08/27 01:03:35;;;;;;;1.50;1.40;;;;;;;14.85;71.23;100439.56;698722;28;46326;-67
2021/08/27 01:03:57;;;;;;;1.50;1.40;;;;;;;14.83;71.04;100437.06;695514;28;23476;-67
2021/08/27 01:04:19;;;;;;;2.70;1.55;;;;;;;14.83;71.16;100437.06;696876;28;21549;-68
2021/08/27 01:04:43;;;;;;;1.60;1.50;;;;;;;14.84;71.37;100438.72;698356;28;45279;-67
2021/08/27 01:05:06;;;;;;;1.83;1.67;;;;;;;14.83;71.41;100441.66;696050;28;115165;-68
2021/08/27 01:05:28;;;;;;;2.20;1.70;;;;;;;14.82;71.07;100434.56;694936;28;46822;-68
2021/08/27 01:05:56;;;;;;;2.13;1.45;;;;;;;14.81;71.43;100439.19;696626;28;47345;-66
2021/08/27 01:06:21;;;;;;;2.40;1.70;;;;;;;14.82;71.50;100440.00;690041;28;159568;-68
2021/08/27 01:06:45;;;;;;;1.50;1.40;;;;;;;14.79;71.30;100435.81;691604;28;115163;-68
2021/08/27 01:07:10;;;;;;;1.85;1.50;;;;;;;14.81;71.23;100441.91;691593;28;115209;-66
2021/08/27 01:07:35;;;;;;;2.03;1.73;;;;;;;14.82;71.34;100440.00;693837;28;138105;-66
2021/08/27 01:08:00;;;;;;;2.80;1.60;;;;;;;14.81;71.36;100441.91;694877;28;103940;-66
2021/08/27 01:08:27;;;;;;;1.75;1.63;;;;;;;14.82;71.44;100437.28;698700;28;115155;-66
2021/08/27 01:08:57;;;;;;;2.40;1.67;;;;;;;14.81;71.36;100443.75;697593;28;139457;-66
2021/08/27 01:09:24;;;;;;;1.70;1.60;;;;;;;14.80;71.49;100436.66;700615;28;59471;-66
2021/08/27 01:09:51;;;;;;;1.58;1.38;;;;;;;14.82;71.27;100438.13;697879;28;115392;-66
2021/08/27 01:10:17;;;;;;;1.70;1.60;;;;;;;14.82;71.27;100435.38;698153;28;161037;-67
2021/08/27 01:10:40;;;;;;;2.90;1.55;;;;;;;14.83;71.15;100438.94;697707;28;137969;-66
2021/08/27 01:11:08;;;;;;;1.77;1.60;;;;;;;14.83;71.23;100441.66;700649;28;69147;-66
2021/08/27 01:11:33;;;;;;;1.77;1.50;;;;;;;14.83;71.00;100437.06;697750;28;138720;-66
2021/08/27 01:12:02;;;;;;;2.67;1.50;;;;;;;14.80;71.29;100437.50;697090;28;115171;-67
2021/08/27 01:12:28;;;;;;;1.60;1.50;;;;;;;14.80;71.13;100436.66;696496;28;139027;-66
2021/08/27 01:12:59;;;;;;;2.88;1.60;;;;;;;14.84;71.32;100448.78;696521;28;136409;-66
2021/08/27 01:13:25;;;;;;;2.45;1.70;;;;;;;14.82;71.19;100438.13;696488;28;135513;-68
2021/08/27 01:13:52;;;;;;;2.15;1.58;;;;;;;14.82;71.39;100440.00;696951;28;138772;-68
2021/08/27 01:14:17;;;;;;;1.65;1.55;;;;;;;14.85;71.42;100439.56;697161;28;161948;-68
2021/08/27 01:14:40;;;;;;;1.70;1.60;;;;;;;14.84;71.42;100441.44;698335;28;138563;-68
2021/08/27 01:15:05;;;;;;;1.70;1.60;;;;;;;14.84;71.43;100438.72;700400;28;69353;-68
2021/08/27 01:15:31;;;;;;;2.17;1.50;;;;;;;14.83;71.40;100442.50;699287;28;92315;-68
2021/08/27 01:15:57;;;;;;;2.30;1.55;;;;;;;14.83;71.17;100441.66;697614;28;162016;-68
2021/08/27 01:16:24;;;;;;;2.17;1.70;;;;;;;14.84;71.55;100443.34;697367;28;138244;-68
2021/08/27 01:16:48;;;;;;;1.77;1.67;;;;;;;14.83;71.39;100441.66;695101;28;137302;-66
2021/08/27 01:17:12;;;;;;;1.80;1.42;;;;;;;14.82;71.26;100442.72;692344;28;114847;-66
2021/08/27 01:17:36;;;;;;;3.20;1.40;;;;;;;14.82;71.24;100440.00;693312;28;92321;-66
2021/08/27 01:18:04;;;;;;;1.20;1.20;;;;;;;14.82;71.20;100442.72;693906;28;92290;-67
2021/08/27 01:18:27;;;;;;;1.50;1.40;;;;;;;14.83;71.55;100442.50;692441;28;137934;-66
2021/08/27 01:18:52;;;;;;;5.53;4.05;;;;;;;14.82;71.54;100445.44;697034;28;70052;-67
2021/08/27 01:19:31;;;;;;;17.60;10.30;;;;;;;14.78;71.58;100437.72;699531;28;90353;-67
2021/08/27 01:20:14;;;;;;;47.65;29.63;;;;;;;14.77;71.46;100435.19;697915;28;137555;-66
2021/08/27 01:20:59;;;;;;;21.65;15.07;;;;;;;14.81;71.56;100441.91;697959;28;136739;-66
2021/08/27 01:21:44;;;;;;;35.55;23.80;;;;;;;14.81;71.42;100441.03;697675;28;137540;-66
2021/08/27 01:22:32;;;;;;;13.27;9.02;;;;;;;14.82;71.37;100445.44;697396;28;137522;-66
2021/08/27 01:23:10;;;;;;;4.60;3.80;;;;;;;14.77;71.56;100446.91;698305;28;137536;-66
2021/08/27 01:23:35;;;;;;;2.90;2.67;;;;;;;14.78;71.45;100448.59;698726;28;138596;-68
2021/08/27 01:23:57;;;;;;;2.45;2.10;;;;;;;14.77;71.68;100446.91;698522;28;115964;-69
2021/08/27 01:24:19;;;;;;;2.15;1.85;;;;;;;14.77;71.75;100444.19;700232;28;67500;-68
2021/08/27 01:24:40;;;;;;;1.80;1.70;;;;;;;14.76;71.62;100445.25;702075;28;23475;-68
2021/08/27 01:25:02;;;;;;;1.83;1.70;;;;;;;14.75;71.69;100438.13;701954;28;44461;-66
2021/08/27 01:25:24;;;;;;;2.50;1.50;;;;;;;14.74;71.66;100444.59;702227;28;23466;-66
2021/08/27 01:25:49;;;;;;;2.15;1.60;;;;;;;14.73;71.83;100442.94;700404;28;46345;-66
2021/08/27 01:26:13;;;;;;;1.70;1.60;;;;;;;14.72;71.62;100438.56;698678;28;113367;-66
2021/08/27 01:26:37;;;;;;;1.85;1.75;;;;;;;14.72;71.61;100437.72;699501;28;90734;-66
2021/08/27 01:27:02;;;;;;;1.80;1.60;;;;;;;14.74;71.67;100447.31;699113;28;113600;-66
2021/08/27 01:27:25;;;;;;;1.80;1.70;;;;;;;14.73;71.58;100442.09;698896;28;93530;-66
2021/08/27 01:27:47;;;;;;;1.90;1.80;;;;;;;14.73;71.74;100442.09;699620;28;67316;-66
2021/08/27 01:28:11;;;;;;;1.83;1.73;;;;;;;14.73;71.68;100442.09;701170;28;46332;-66
2021/08/27 01:28:37;;;;;;;1.77;1.67;;;;;;;14.71;71.66;100447.75;695720;28;85609;-67
2021/08/27 01:28:58;;;;;;;1.80;1.70;;;;;;;14.72;71.86;100446.72;693218;28;136476;-68
2021/08/27 01:29:28;;;;;;;1.70;1.60;;;;;;;14.72;71.96;100448.59;697501;28;23653;-67
2021/08/27 01:29:56;;;;;;;1.70;1.60;;;;;;;14.72;71.87;100443.16;693825;28;137474;-67
2021/08/27 01:30:23;;;;;;;1.65;1.55;;;;;;;14.71;71.67;100446.91;694130;28;136529;-67
2021/08/27 01:30:49;;;;;;;1.80;1.70;;;;;;;14.69;71.84;100440.88;697825;28;135016;-68
2021/08/27 01:31:16;;;;;;;1.85;1.75;;;;;;;14.68;71.85;100437.28;697504;28;137953;-68
2021/08/27 01:31:42;;;;;;;1.50;1.50;;;;;;;14.69;71.75;100441.69;697509;28;161632;-65
2021/08/27 01:32:07;;;;;;;1.80;1.70;;;;;;;14.70;71.84;100445.25;697748;28;139052;-66
2021/08/27 01:32:34;;;;;;;1.88;1.77;;;;;;;14.68;72.07;100448.16;695827;28;63954;-68
2021/08/27 01:32:57;;;;;;;3.22;1.60;;;;;;;14.67;71.90;100437.50;693595;28;137514;-66
2021/08/27 01:33:21;;;;;;;2.55;1.70;;;;;;;14.64;72.06;100440.66;695783;28;69461;-66
2021/08/27 01:33:48;;;;;;;2.40;1.80;;;;;;;14.69;71.97;100440.88;695519;28;90210;-67
2021/08/27 01:34:22;;;;;;;1.83;1.67;;;;;;;14.68;72.04;100441.91;693009;28;138049;-66
2021/08/27 01:34:44;;;;;;;1.70;1.60;;;;;;;14.70;71.78;100447.97;696322;28;137501;-66
2021/08/27 01:35:06;;;;;;;1.60;1.50;;;;;;;14.69;71.77;100443.59;700580;28;44397;-67
2021/08/27 01:35:29;;;;;;;1.70;1.60;;;;;;;14.67;72.08;100443.81;699313;28;46331;-68
2021/08/27 01:35:56;;;;;;;1.65;1.63;;;;;;;14.70;71.95;100448.81;698912;28;69293;-68
2021/08/27 01:36:18;;;;;;;3.10;1.90;;;;;;;14.70;72.17;100448.81;696441;28;137712;-67
2021/08/27 01:36:40;;;;;;;2.67;1.60;;;;;;;14.70;71.88;100446.09;701620;28;23485;-67
2021/08/27 01:37:03;;;;;;;2.33;1.80;;;;;;;14.71;71.98;100450.47;700377;28;67494;-68
2021/08/27 01:37:25;;;;;;;1.70;1.60;;;;;;;14.70;71.96;100443.38;699370;28;69458;-67
2021/08/27 01:37:48;;;;;;;1.80;1.70;;;;;;;14.71;72.08;100439.59;702134;28;1024;-67
2021/08/27 01:38:10;;;;;;;1.95;1.80;;;;;;;14.72;71.81;100449.44;697306;28;68845;-68
2021/08/27 01:38:33;;;;;;;1.75;1.65;;;;;;;14.73;72.10;100450.25;698173;28;44369;-68
2021/08/27 01:38:55;;;;;;;1.70;1.60;;;;;;;14.72;72.09;100444.00;697851;28;45272;-67
2021/08/27 01:39:16;;;;;;;1.70;1.60;;;;;;;14.72;72.07;100446.72;697757;28;47174;-68
2021/08/27 01:39:41;;;;;;;2.08;1.60;;;;;;;14.72;71.73;100445.88;699071;28;45230;-68
2021/08/27 01:40:04;;;;;;;1.67;1.55;;;;;;;14.69;71.95;100447.13;696973;28;115587;-68
2021/08/27 01:40:26;;;;;;;1.80;1.70;;;;;;;14.70;71.87;100447.97;699659;28;67401;-68
2021/08/27 01:40:49;;;;;;;1.70;1.60;;;;;;;14.69;71.63;100446.31;701293;28;46317;-68
2021/08/27 01:41:11;;;;;;;2.00;1.70;;;;;;;14.68;71.87;100442.72;700641;28;67619;-69
2021/08/27 01:41:34;;;;;;;1.92;1.70;;;;;;;14.66;71.98;100442.13;701253;28;44393;-68
2021/08/27 01:42:01;;;;;;;1.80;1.70;;;;;;;14.66;71.82;100444.00;699940;28;67493;-68
2021/08/27 01:42:25;;;;;;;1.63;1.52;;;;;;;14.64;71.68;100452.38;697834;28;136279;-65
2021/08/27 01:42:48;;;;;;;1.70;1.60;;;;;;;14.61;71.81;100444.66;700289;28;67514;-67
2021/08/27 01:43:12;;;;;;;2.03;1.70;;;;;;;14.62;71.81;100446.28;702580;28;14131;-67
2021/08/27 01:43:33;;;;;;;1.88;1.75;;;;;;;14.61;71.99;100444.66;699855;28;68365;-68
2021/08/27 01:43:55;;;;;;;1.95;1.70;;;;;;;14.57;71.85;100446.88;702413;28;21563;-68
2021/08/27 01:44:17;;;;;;;1.75;1.65;;;;;;;14.58;72.09;100443.13;701018;28;45919;-68
2021/08/27 01:44:40;;;;;;;2.10;2.00;;;;;;;14.59;71.92;100447.53;700553;28;69121;-68
2021/08/27 01:45:01;;;;;;;1.70;1.60;;;;;;;14.57;72.18;100444.16;701723;28;46310;-68
2021/08/27 01:45:24;;;;;;;1.77;1.67;;;;;;;14.56;72.29;100444.38;700538;28;46527;-68
2021/08/27 01:45:46;;;;;;;2.17;1.70;;;;;;;14.56;72.09;100450.69;701315;28;46334;-68
2021/08/27 01:46:08;;;;;;;1.90;1.50;;;;;;;14.56;72.16;100447.09;700246;28;67501;-68
2021/08/27 01:46:30;;;;;;;1.98;1.65;;;;;;;14.56;72.43;100452.53;702460;28;22360;-69
2021/08/27 01:46:53;;;;;;;1.98;1.77;;;;;;;14.55;72.15;100445.44;701008;28;47997;-68
2021/08/27 01:47:17;;;;;;;1.60;1.50;;;;;;;14.55;72.33;100445.44;699931;28;69105;-68
2021/08/27 01:47:39;;;;;;;1.55;1.45;;;;;;;14.55;72.39;100450.88;698075;28;116198;-69
2021/08/27 01:48:04;;;;;;;2.85;1.63;;;;;;;14.54;72.19;100443.78;698812;28;22200;-68